createdAt,value
2017-06-05T11:56:04.912Z,9.86
2017-06-05T13:51:23.284Z,14.37
2017-06-05T13:52:26.063Z,14.47
2017-06-05T13:53:28.624Z,14.51
2017-06-05T13:54:31.212Z,14.17
2017-06-05T13:55:33.767Z,14.00
2017-06-05T13:56:36.343Z,14.00
2017-06-05T13:57:39.087Z,13.97
2017-06-05T13:58:41.667Z,14.18
2017-06-05T13:59:44.367Z,14.20
2017-06-05T14:00:50.378Z,14.04
2017-06-05T14:01:57.763Z,13.95
2017-06-05T14:03:00.345Z,13.79
2017-06-05T14:04:02.883Z,13.77
2017-06-05T14:05:05.582Z,13.92
2017-06-05T14:06:08.342Z,14.83
2017-06-05T14:07:11.028Z,15.54
2017-06-05T14:08:13.782Z,15.72
2017-06-05T14:09:16.708Z,15.23
2017-06-05T14:10:19.540Z,14.50
2017-06-05T14:11:22.481Z,13.89
2017-06-05T14:12:25.436Z,13.87
2017-06-05T14:13:28.413Z,14.86
2017-06-05T14:14:31.314Z,15.94
2017-06-05T14:15:34.234Z,16.56
2017-06-05T14:16:37.076Z,17.04
2017-06-05T14:17:40.002Z,17.31
2017-06-05T14:18:42.595Z,17.56
2017-06-05T14:19:45.165Z,17.70
2017-06-05T14:20:47.737Z,18.12
2017-06-05T14:21:50.569Z,18.63
2017-06-05T14:22:53.472Z,18.81
2017-06-05T14:23:56.400Z,19.22
2017-06-05T14:24:59.465Z,19.21
2017-06-05T14:26:02.105Z,19.25
2017-06-05T14:27:04.812Z,19.23
2017-06-05T14:28:07.375Z,19.47
2017-06-05T14:29:09.946Z,19.54
2017-06-05T14:30:12.515Z,19.54
2017-06-05T14:31:15.083Z,19.69
2017-06-05T14:32:17.670Z,20.21
2017-06-05T14:33:20.299Z,20.06
2017-06-05T14:34:23.127Z,20.21
2017-06-05T14:35:25.961Z,19.98
2017-06-05T14:36:28.879Z,19.58
2017-06-05T14:37:31.795Z,19.29
2017-06-05T14:38:34.606Z,19.07
2017-06-05T14:39:37.436Z,18.66
2017-06-05T14:40:40.369Z,18.21
2017-06-05T14:41:43.206Z,17.99
2017-06-05T14:42:46.178Z,17.96
2017-06-05T14:43:48.717Z,17.75
2017-06-05T14:44:51.561Z,17.87
2017-06-05T14:45:54.425Z,18.45
2017-06-05T14:46:57.179Z,18.65
2017-06-05T14:47:59.763Z,18.57
2017-06-05T14:49:02.376Z,18.75
2017-06-05T14:50:05.192Z,19.21
2017-06-05T14:51:08.524Z,19.69
2017-06-05T14:52:11.285Z,19.87
2017-06-05T14:53:13.925Z,19.69
2017-06-05T14:54:16.509Z,19.32
2017-06-05T14:55:19.081Z,19.06
2017-06-05T14:56:21.655Z,18.91
2017-06-05T14:57:24.227Z,18.98
2017-06-05T14:58:26.936Z,19.36
2017-06-05T14:59:29.516Z,19.58
2017-06-05T15:00:33.418Z,19.81
2017-06-05T15:01:40.278Z,19.43
2017-06-05T15:02:42.680Z,19.77
2017-06-05T15:03:47.092Z,20.38
2017-06-05T15:04:50.535Z,20.85
2017-06-05T15:05:53.421Z,20.35
2017-06-05T15:06:56.344Z,19.78
2017-06-05T15:07:59.211Z,19.41
2017-06-05T15:09:02.070Z,19.43
2017-06-05T15:10:05.008Z,19.58
2017-06-05T15:11:07.920Z,19.68
2017-06-05T15:12:10.857Z,19.61
2017-06-05T15:13:13.654Z,19.51
2017-06-05T15:14:16.540Z,19.51
2017-06-05T15:15:19.341Z,19.33
2017-06-05T15:16:21.961Z,19.08
2017-06-05T15:17:24.532Z,19.13
2017-06-05T15:18:27.096Z,19.21
2017-06-05T15:19:29.800Z,18.94
2017-06-05T15:20:32.800Z,18.88
2017-06-05T15:21:35.621Z,18.60
2017-06-05T15:22:38.416Z,18.44
2017-06-05T15:23:41.122Z,18.32
2017-06-05T15:24:43.673Z,18.12
2017-06-05T15:25:46.244Z,18.18
2017-06-05T15:26:48.944Z,17.93
2017-06-05T15:27:51.500Z,17.66
2017-06-05T15:28:54.100Z,18.23
2017-06-05T15:29:56.802Z,18.21
2017-06-05T15:30:59.437Z,17.92
2017-06-05T15:32:02.039Z,17.71
2017-06-05T15:33:04.857Z,17.48
2017-06-05T15:34:07.659Z,17.33
2017-06-05T15:35:10.465Z,16.97
2017-06-05T15:36:13.261Z,16.86
2017-06-05T15:37:16.091Z,16.83
2017-06-05T15:38:18.653Z,16.79
2017-06-05T15:39:21.280Z,17.15
2017-06-05T15:40:23.996Z,17.71
2017-06-05T15:41:26.810Z,17.79
2017-06-05T15:42:29.557Z,17.38
2017-06-05T15:43:32.421Z,17.03
2017-06-05T15:44:35.270Z,16.83
2017-06-05T15:45:37.818Z,16.76
2017-06-05T15:46:40.401Z,16.38
2017-06-05T15:47:43.014Z,16.27
2017-06-05T15:48:45.658Z,16.05
2017-06-05T15:49:48.556Z,15.71
2017-06-05T15:50:51.363Z,15.57
2017-06-05T15:51:54.212Z,15.53
2017-06-05T15:52:57.102Z,15.51
2017-06-05T15:54:00.091Z,15.71
2017-06-05T15:55:03.778Z,16.52
2017-06-05T15:56:06.596Z,17.43
2017-06-05T15:57:09.524Z,18.07
2017-06-05T15:58:12.059Z,18.21
2017-06-05T15:59:14.638Z,18.08
2017-06-05T16:00:22.124Z,17.71
2017-06-05T16:01:28.751Z,17.21
2017-06-05T16:02:31.407Z,17.23
2017-06-05T16:03:34.200Z,17.41
2017-06-05T16:04:36.999Z,17.56
2017-06-05T16:05:39.802Z,17.34
2017-06-05T16:06:42.492Z,17.25
2017-06-05T16:07:45.042Z,17.51
2017-06-05T16:08:47.635Z,17.38
2017-06-05T16:09:50.365Z,17.16
2017-06-05T16:10:53.919Z,17.07
2017-06-05T16:11:56.572Z,16.81
2017-06-05T16:12:59.130Z,16.50
2017-06-05T16:14:01.695Z,16.07
2017-06-05T16:15:04.306Z,15.87
2017-06-05T16:16:06.880Z,15.92
2017-06-05T16:17:09.575Z,15.78
2017-06-05T16:18:12.126Z,15.74
2017-06-05T16:19:16.266Z,15.76
2017-06-05T16:20:19.110Z,15.50
2017-06-05T16:21:22.100Z,15.83
2017-06-05T16:22:24.707Z,15.39
2017-06-05T16:23:27.633Z,14.88
2017-06-05T16:24:30.565Z,14.70
2017-06-05T16:25:33.352Z,14.58
2017-06-05T16:26:36.153Z,14.70
2017-06-05T16:27:38.946Z,14.65
2017-06-05T16:28:41.848Z,14.60
2017-06-05T16:29:44.706Z,14.69
2017-06-05T16:30:47.578Z,14.47
2017-06-05T16:31:50.428Z,14.06
2017-06-05T16:32:53.211Z,13.73
2017-06-05T16:33:56.751Z,13.77
2017-06-05T16:34:59.538Z,13.91
2017-06-05T16:36:02.344Z,14.02
2017-06-05T16:37:05.089Z,14.10
2017-06-05T16:38:07.769Z,13.95
2017-06-05T16:39:10.376Z,14.32
2017-06-05T16:40:13.110Z,14.46
2017-06-05T16:41:15.719Z,14.40
2017-06-05T16:42:19.122Z,14.37
2017-06-05T16:43:21.694Z,14.22
2017-06-05T16:44:24.344Z,13.81
2017-06-05T16:45:26.918Z,13.66
2017-06-05T16:46:29.485Z,13.82
2017-06-05T16:47:32.053Z,13.63
2017-06-05T16:48:34.862Z,13.14
2017-06-05T16:49:37.809Z,12.79
2017-06-05T16:50:40.723Z,12.97
2017-06-05T16:51:43.505Z,12.65
2017-06-05T16:52:46.591Z,12.62
2017-06-05T16:53:49.506Z,12.71
2017-06-05T16:54:52.391Z,12.82
2017-06-05T16:55:57.962Z,12.71
2017-06-05T16:57:04.164Z,12.64
2017-06-05T16:58:06.702Z,12.67
2017-06-05T16:59:09.276Z,12.72
2017-06-05T17:00:15.311Z,12.77
2017-06-05T17:01:19.842Z,12.75
2017-06-05T17:02:26.273Z,12.59
2017-06-05T17:03:29.000Z,12.37
2017-06-05T17:04:31.881Z,12.60
2017-06-05T17:05:34.430Z,12.39
2017-06-05T17:06:37.021Z,12.47
2017-06-05T17:07:39.710Z,12.56
2017-06-05T17:08:43.079Z,12.56
2017-06-05T17:09:47.970Z,12.35
2017-06-05T17:10:50.600Z,12.19
2017-06-05T17:11:53.255Z,12.10
2017-06-05T17:12:56.552Z,12.12
2017-06-05T17:13:59.407Z,12.13
2017-06-05T17:15:02.192Z,12.01
2017-06-05T17:16:05.172Z,12.14
2017-06-05T17:17:08.040Z,12.19
2017-06-05T17:18:10.599Z,12.19
2017-06-05T17:19:14.716Z,12.32
2017-06-05T17:20:17.653Z,12.64
2017-06-05T17:21:20.258Z,12.60
2017-06-05T17:22:23.178Z,12.28
2017-06-05T17:23:26.006Z,12.01
2017-06-05T17:24:29.095Z,11.86
2017-06-05T17:25:31.896Z,11.44
2017-06-05T17:26:34.694Z,10.97
2017-06-05T17:27:37.493Z,10.60
2017-06-05T17:28:40.312Z,10.29
2017-06-05T17:29:43.097Z,9.89
2017-06-05T17:30:45.897Z,9.74
2017-06-05T17:31:48.703Z,9.66
2017-06-05T17:32:51.503Z,9.89
2017-06-05T17:33:54.240Z,9.97
2017-06-05T17:34:56.792Z,9.93
2017-06-05T17:35:59.439Z,9.69
2017-06-05T17:37:02.020Z,9.54
2017-06-05T17:38:04.614Z,9.40
2017-06-05T17:39:08.251Z,9.20
2017-06-05T17:40:10.964Z,8.96
2017-06-05T17:41:15.946Z,8.66
2017-06-05T17:42:18.480Z,8.40
2017-06-05T17:43:21.794Z,8.18
2017-06-05T17:44:26.837Z,8.04
2017-06-05T17:45:29.881Z,7.92
2017-06-05T17:46:32.420Z,7.74
2017-06-05T17:47:35.252Z,7.64
2017-06-05T17:48:37.790Z,7.52
2017-06-05T17:49:40.543Z,7.48
2017-06-05T17:50:43.089Z,7.31
2017-06-05T17:51:45.881Z,7.40
2017-06-05T17:52:48.671Z,7.42
2017-06-05T17:53:51.469Z,7.34
2017-06-05T17:54:54.470Z,7.42
2017-06-05T17:55:56.991Z,7.48
2017-06-05T17:56:59.674Z,7.46
2017-06-05T17:58:02.214Z,7.49
2017-06-05T17:59:04.837Z,7.69
2017-06-05T18:00:08.737Z,7.71
2017-06-05T18:01:12.135Z,7.86
2017-06-05T18:02:16.760Z,7.85
2017-06-05T18:03:19.167Z,7.89
2017-06-05T18:04:21.725Z,7.92
2017-06-05T18:05:24.319Z,7.92
2017-06-05T18:06:27.249Z,7.95
2017-06-05T18:07:29.899Z,7.80
2017-06-05T18:08:32.690Z,7.85
2017-06-05T18:09:35.468Z,7.74
2017-06-05T18:10:38.376Z,7.55
2017-06-05T18:11:41.149Z,7.49
2017-06-05T18:12:43.925Z,7.45
2017-06-05T18:13:46.842Z,7.55
2017-06-05T18:14:49.698Z,7.53
2017-06-05T18:15:52.473Z,7.48
2017-06-05T18:16:55.342Z,7.46
2017-06-05T18:17:58.202Z,7.42
2017-06-05T18:19:01.107Z,7.52
2017-06-05T18:20:03.875Z,7.48
2017-06-05T18:21:06.669Z,7.49
2017-06-05T18:22:09.187Z,7.49
2017-06-05T18:23:11.993Z,7.53
2017-06-05T18:24:14.792Z,7.50
2017-06-05T18:25:17.359Z,7.58
2017-06-05T18:26:19.990Z,7.64
2017-06-05T18:27:22.673Z,7.71
2017-06-05T18:28:25.339Z,7.75
2017-06-05T18:29:27.888Z,7.80
2017-06-05T18:30:30.439Z,7.85
2017-06-05T18:31:32.988Z,7.93
2017-06-05T18:32:35.542Z,8.20
2017-06-05T18:33:38.115Z,8.36
2017-06-05T18:34:40.661Z,8.53
2017-06-05T18:35:43.389Z,8.56
2017-06-05T18:36:45.918Z,8.62
2017-06-05T18:37:48.723Z,8.66
2017-06-05T18:38:51.624Z,8.61
2017-06-05T18:39:54.387Z,8.53
2017-06-05T18:40:57.165Z,8.29
2017-06-05T18:42:00.016Z,8.08
2017-06-05T18:43:02.566Z,7.49
2017-06-05T18:44:05.214Z,7.03
2017-06-05T18:45:07.735Z,6.80
2017-06-05T18:46:10.532Z,6.61
2017-06-05T18:47:13.335Z,6.71
2017-06-05T18:48:16.216Z,6.79
2017-06-05T18:49:19.118Z,6.70
2017-06-05T18:50:22.014Z,6.49
2017-06-05T18:51:24.784Z,6.18
2017-06-05T18:52:27.565Z,5.99
2017-06-05T18:53:30.347Z,5.82
2017-06-05T18:54:32.998Z,5.72
2017-06-05T18:55:35.602Z,5.54
2017-06-05T18:56:38.165Z,5.48
2017-06-05T18:57:40.702Z,5.20
2017-06-05T18:58:43.487Z,5.17
2017-06-05T18:59:46.308Z,5.03
2017-06-05T19:00:52.018Z,5.00
2017-06-05T19:01:57.709Z,4.84
2017-06-05T19:03:00.514Z,4.54
2017-06-05T19:04:03.295Z,4.54
2017-06-05T19:05:06.073Z,4.65
2017-06-05T19:06:08.946Z,4.72
2017-06-05T19:07:11.501Z,4.59
2017-06-05T19:08:14.136Z,4.45
2017-06-05T19:09:17.058Z,4.52
2017-06-05T19:10:19.714Z,4.36
2017-06-05T19:11:22.306Z,4.34
2017-06-05T19:12:24.922Z,4.26
2017-06-05T19:13:27.727Z,4.26
2017-06-05T19:14:30.291Z,4.29
2017-06-05T19:15:32.890Z,4.32
2017-06-05T19:16:35.506Z,4.16
2017-06-05T19:17:38.051Z,4.20
2017-06-05T19:18:40.600Z,4.23
2017-06-05T19:19:43.139Z,4.24
2017-06-05T19:20:45.686Z,4.23
2017-06-05T19:21:48.314Z,4.30
2017-06-05T19:22:50.893Z,4.27
2017-06-05T19:23:53.677Z,4.33
2017-06-05T19:24:56.281Z,4.23
2017-06-05T19:25:59.185Z,4.30
2017-06-05T19:27:05.983Z,4.16
2017-06-05T19:28:08.763Z,4.23
2017-06-05T19:29:13.339Z,4.23
2017-06-05T19:30:18.723Z,4.29
2017-06-05T19:31:21.514Z,4.16
2017-06-05T19:32:24.275Z,4.33
2017-06-05T19:33:27.087Z,4.22
2017-06-05T19:34:29.960Z,4.36
2017-06-05T19:35:32.793Z,4.44
2017-06-05T19:36:35.636Z,4.50
2017-06-05T19:37:38.297Z,4.58
2017-06-05T19:38:41.045Z,4.54
2017-06-05T19:39:43.616Z,4.69
2017-06-05T19:40:46.484Z,4.82
2017-06-05T19:41:49.461Z,4.92
2017-06-05T19:42:52.374Z,4.94
2017-06-05T19:43:55.336Z,4.96
2017-06-05T19:44:57.867Z,5.03
2017-06-05T19:46:00.416Z,5.15
2017-06-05T19:47:03.285Z,5.15
2017-06-05T19:48:05.813Z,5.12
2017-06-05T19:49:08.470Z,5.35
2017-06-05T19:50:11.011Z,5.36
2017-06-05T19:51:13.566Z,5.42
2017-06-05T19:52:16.137Z,5.49
2017-06-05T19:53:18.935Z,5.51
2017-06-05T19:54:21.736Z,5.53
2017-06-05T19:55:24.661Z,5.51
2017-06-05T19:56:27.332Z,5.56
2017-06-05T19:57:30.016Z,5.56
2017-06-05T19:58:32.613Z,5.54
2017-06-05T19:59:35.200Z,5.51
2017-06-05T20:00:41.370Z,5.49
2017-06-05T20:01:48.086Z,5.54
2017-06-05T20:02:50.748Z,5.39
2017-06-05T20:03:53.592Z,5.42
2017-06-05T20:04:56.477Z,5.43
2017-06-05T20:05:59.366Z,5.43
2017-06-05T20:07:02.211Z,5.21
2017-06-05T20:08:04.990Z,4.86
2017-06-05T20:09:07.902Z,4.66
2017-06-05T20:10:10.573Z,4.50
2017-06-05T20:11:13.097Z,4.33
2017-06-05T20:12:15.705Z,4.23
2017-06-05T20:13:18.228Z,4.11
2017-06-05T20:14:20.772Z,4.02
2017-06-05T20:15:23.309Z,3.87
2017-06-05T20:16:25.906Z,3.90
2017-06-05T20:17:28.444Z,3.86
2017-06-05T20:18:30.991Z,3.84
2017-06-05T20:19:33.562Z,3.72
2017-06-05T20:20:36.344Z,3.72
2017-06-05T20:21:38.861Z,3.70
2017-06-05T20:22:41.799Z,3.70
2017-06-05T20:23:44.733Z,3.57
2017-06-05T20:24:47.579Z,3.57
2017-06-05T20:25:50.355Z,3.62
2017-06-05T20:26:53.246Z,3.62
2017-06-05T20:27:56.047Z,3.75
2017-06-05T20:28:58.807Z,3.70
2017-06-05T20:30:01.573Z,3.55
2017-06-05T20:31:04.435Z,3.58
2017-06-05T20:32:07.457Z,3.40
2017-06-05T20:33:10.356Z,3.50
2017-06-05T20:34:13.120Z,3.52
2017-06-05T20:35:15.909Z,3.48
2017-06-05T20:36:18.460Z,3.43
2017-06-05T20:37:21.297Z,3.45
2017-06-05T20:38:24.245Z,3.55
2017-06-05T20:39:26.768Z,3.48
2017-06-05T20:40:29.360Z,3.42
2017-06-05T20:41:31.893Z,3.45
2017-06-05T20:42:34.565Z,3.47
2017-06-05T20:43:37.152Z,3.39
2017-06-05T20:44:39.864Z,3.42
2017-06-05T20:45:42.946Z,3.33
2017-06-05T20:46:45.480Z,3.35
2017-06-05T20:47:48.109Z,3.21
2017-06-05T20:48:50.649Z,3.20
2017-06-05T20:49:53.320Z,3.03
2017-06-05T20:50:56.060Z,3.06
2017-06-05T20:51:58.863Z,3.03
2017-06-05T20:53:01.786Z,3.17
2017-06-05T20:54:04.575Z,3.18
2017-06-05T20:55:07.460Z,3.15
2017-06-05T20:56:10.266Z,3.18
2017-06-05T20:57:12.818Z,3.20
2017-06-05T20:58:15.416Z,3.06
2017-06-05T20:59:18.021Z,3.11
2017-06-05T21:00:22.867Z,3.13
2017-06-05T21:01:30.836Z,3.14
2017-06-05T21:02:33.647Z,3.13
2017-06-05T21:03:36.453Z,3.02
2017-06-05T21:04:39.278Z,3.06
2017-06-05T21:05:42.073Z,3.05
2017-06-05T21:06:44.984Z,3.00
2017-06-05T21:07:47.803Z,3.05
2017-06-05T21:08:50.442Z,3.08
2017-06-05T21:09:52.989Z,2.97
2017-06-05T21:10:55.580Z,3.08
2017-06-05T21:11:58.130Z,3.05
2017-06-05T21:13:01.029Z,3.08
2017-06-05T21:14:03.955Z,3.13
2017-06-05T21:15:06.755Z,3.33
2017-06-05T21:16:09.288Z,3.36
2017-06-05T21:17:12.112Z,3.43
2017-06-05T21:18:15.033Z,3.32
2017-06-05T21:19:17.832Z,3.50
2017-06-05T21:20:20.679Z,3.50
2017-06-05T21:21:23.225Z,3.55
2017-06-05T21:22:25.828Z,3.42
2017-06-05T21:23:28.731Z,3.47
2017-06-05T21:24:31.263Z,3.60
2017-06-05T21:25:34.091Z,3.40
2017-06-05T21:26:36.784Z,3.43
2017-06-05T21:27:39.443Z,3.54
2017-06-05T21:28:41.983Z,3.42
2017-06-05T21:29:44.545Z,3.43
2017-06-05T21:30:47.209Z,3.33
2017-06-05T21:31:49.787Z,3.32
2017-06-05T21:32:52.360Z,3.23
2017-06-05T21:33:54.926Z,3.26
2017-06-05T21:34:57.538Z,3.15
2017-06-05T21:36:00.097Z,3.24
2017-06-05T21:37:02.688Z,3.26
2017-06-05T21:38:05.502Z,3.31
2017-06-05T21:39:08.132Z,3.20
2017-06-05T21:40:11.036Z,3.17
2017-06-05T21:41:13.912Z,3.13
2017-06-05T21:42:16.812Z,2.99
2017-06-05T21:43:19.582Z,3.00
2017-06-05T21:44:22.497Z,2.92
2017-06-05T21:45:25.475Z,2.89
2017-06-05T21:46:28.254Z,2.77
2017-06-05T21:47:31.040Z,2.79
2017-06-05T21:48:33.954Z,2.78
2017-06-05T21:49:36.737Z,2.82
2017-06-05T21:50:39.575Z,2.66
2017-06-05T21:51:42.115Z,2.66
2017-06-05T21:52:44.717Z,2.72
2017-06-05T21:53:47.330Z,2.69
2017-06-05T21:54:50.129Z,2.56
2017-06-05T21:55:52.912Z,2.61
2017-06-05T21:56:55.795Z,2.54
2017-06-05T21:57:58.728Z,2.59
2017-06-05T21:59:01.296Z,2.43
2017-06-05T22:00:03.965Z,2.42
2017-06-05T22:01:08.242Z,2.38
2017-06-05T22:02:14.094Z,2.35
2017-06-05T22:03:16.465Z,2.39
2017-06-05T22:04:19.072Z,2.39
2017-06-05T22:05:21.762Z,2.25
2017-06-05T22:06:24.401Z,2.30
2017-06-05T22:07:27.259Z,2.35
2017-06-05T22:08:30.094Z,2.46
2017-06-05T22:09:32.900Z,2.46
2017-06-05T22:10:35.527Z,2.43
2017-06-05T22:11:38.061Z,2.42
2017-06-05T22:12:40.618Z,2.43
2017-06-05T22:13:43.211Z,2.45
2017-06-05T22:14:45.802Z,2.39
2017-06-05T22:15:48.642Z,2.36
2017-06-05T22:16:51.462Z,2.25
2017-06-05T22:17:54.227Z,2.24
2017-06-05T22:18:57.099Z,2.24
2017-06-05T22:19:59.967Z,2.24
2017-06-05T22:21:02.743Z,2.24
2017-06-05T22:22:05.641Z,2.21
2017-06-05T22:23:08.450Z,2.14
2017-06-05T22:24:11.266Z,2.12
2017-06-05T22:25:13.798Z,2.16
2017-06-05T22:26:16.607Z,2.10
2017-06-05T22:27:19.544Z,1.95
2017-06-05T22:28:22.199Z,1.98
2017-06-05T22:29:24.763Z,1.93
2017-06-05T22:30:27.307Z,1.88
2017-06-05T22:31:29.854Z,1.84
2017-06-05T22:32:32.655Z,1.86
2017-06-05T22:33:35.425Z,1.90
2017-06-05T22:34:38.260Z,1.87
2017-06-05T22:35:41.028Z,1.86
2017-06-05T22:36:43.807Z,2.06
2017-06-05T22:37:46.633Z,2.02
2017-06-05T22:38:49.450Z,1.91
2017-06-05T22:39:52.224Z,2.06
2017-06-05T22:40:54.840Z,1.93
2017-06-05T22:41:57.480Z,1.84
2017-06-05T22:43:00.402Z,1.91
2017-06-05T22:44:02.995Z,1.84
2017-06-05T22:45:05.882Z,1.79
2017-06-05T22:46:08.788Z,1.86
2017-06-05T22:47:11.675Z,1.86
2017-06-05T22:48:14.529Z,1.81
2017-06-05T22:49:17.149Z,1.91
2017-06-05T22:50:19.818Z,1.72
2017-06-05T22:51:22.453Z,1.80
2017-06-05T22:52:24.990Z,1.84
2017-06-05T22:53:27.625Z,1.77
2017-06-05T22:54:30.361Z,1.76
2017-06-05T22:55:32.952Z,1.80
2017-06-05T22:56:35.489Z,1.77
2017-06-05T22:57:38.231Z,1.79
2017-06-05T22:58:40.858Z,1.83
2017-06-05T22:59:43.417Z,1.73
2017-06-05T23:00:47.065Z,1.80
2017-06-05T23:01:54.491Z,1.70
2017-06-05T23:02:57.217Z,1.66
2017-06-05T23:04:00.113Z,1.69
2017-06-05T23:05:02.637Z,1.69
2017-06-05T23:06:05.404Z,1.65
2017-06-05T23:07:08.218Z,1.66
2017-06-05T23:08:11.078Z,1.69
2017-06-05T23:09:13.929Z,1.62
2017-06-05T23:10:16.697Z,1.65
2017-06-05T23:11:19.633Z,1.60
2017-06-05T23:12:22.398Z,1.63
2017-06-05T23:13:25.282Z,1.63
2017-06-05T23:14:28.044Z,1.54
2017-06-05T23:15:30.812Z,1.60
2017-06-05T23:16:33.579Z,1.62
2017-06-05T23:17:37.210Z,1.59
2017-06-05T23:18:40.092Z,1.50
2017-06-05T23:19:42.689Z,1.51
2017-06-05T23:20:45.249Z,1.45
2017-06-05T23:21:47.791Z,1.48
2017-06-05T23:22:50.455Z,1.47
2017-06-05T23:23:53.121Z,1.48
2017-06-05T23:24:55.714Z,1.48
2017-06-05T23:25:58.263Z,1.48
2017-06-05T23:27:00.860Z,1.52
2017-06-05T23:28:03.377Z,1.50
2017-06-05T23:29:06.080Z,1.55
2017-06-05T23:30:08.853Z,1.65
2017-06-05T23:31:11.758Z,1.66
2017-06-05T23:32:14.515Z,1.65
2017-06-05T23:33:17.376Z,1.68
2017-06-05T23:34:20.180Z,1.77
2017-06-05T23:35:23.124Z,1.77
2017-06-05T23:36:25.896Z,1.77
2017-06-05T23:37:28.725Z,1.68
2017-06-05T23:38:31.494Z,1.76
2017-06-05T23:39:34.139Z,1.77
2017-06-05T23:40:36.663Z,1.79
2017-06-05T23:41:39.226Z,1.77
2017-06-05T23:42:41.814Z,1.72
2017-06-05T23:43:44.598Z,1.69
2017-06-05T23:44:47.141Z,1.66
2017-06-05T23:45:49.966Z,1.77
2017-06-05T23:46:52.732Z,1.79
2017-06-05T23:47:55.253Z,1.73
2017-06-05T23:48:57.807Z,1.66
2017-06-05T23:50:00.358Z,1.72
2017-06-05T23:51:03.095Z,1.72
2017-06-05T23:52:05.642Z,1.65
2017-06-05T23:53:08.188Z,1.59
2017-06-05T23:54:10.759Z,1.62
2017-06-05T23:55:13.290Z,1.55
2017-06-05T23:56:16.089Z,1.60
2017-06-05T23:57:19.052Z,1.63
2017-06-05T23:58:21.983Z,1.63
2017-06-05T23:59:24.802Z,1.65
